sensor_id;sensor_type;location;lat;lon;timestamp;P1;durP1;ratioP1;P2;durP2;ratioP2
48911;SDS011;34722;52.108;5.044;2023-11-19T00:00:26;28.48;;;5.60;;
48911;SDS011;34722;52.108;5.044;2023-11-19T00:02:51;26.90;;;6.57;;
48911;SDS011;34722;52.108;5.044;2023-11-19T00:05:17;25.27;;;5.15;;
48911;SDS011;34722;52.108;5.044;2023-11-19T00:07:43;20.30;;;6.32;;
48911;SDS011;34722;52.108;5.044;2023-11-19T00:12:44;27.60;;;7.50;;
48911;SDS011;34722;52.108;5.044;2023-11-19T00:15:12;24.63;;;5.60;;
48911;SDS011;34722;52.108;5.044;2023-11-19T00:17:38;24.50;;;6.82;;
48911;SDS011;34722;52.108;5.044;2023-11-19T00:20:10;37.20;;;7.13;;
48911;SDS011;34722;52.108;5.044;2023-11-19T00:22:37;30.25;;;5.80;;
48911;SDS011;34722;52.108;5.044;2023-11-19T00:25:03;28.88;;;5.70;;
48911;SDS011;34722;52.108;5.044;2023-11-19T00:27:29;33.33;;;7.20;;
48911;SDS011;34722;52.108;5.044;2023-11-19T00:29:54;22.00;;;6.25;;
48911;SDS011;34722;52.108;5.044;2023-11-19T00:32:20;30.67;;;6.65;;
48911;SDS011;34722;52.108;5.044;2023-11-19T00:34:45;33.00;;;7.63;;
48911;SDS011;34722;52.108;5.044;2023-11-19T00:37:13;28.95;;;6.32;;
48911;SDS011;34722;52.108;5.044;2023-11-19T00:39:40;37.30;;;8.43;;
48911;SDS011;34722;52.108;5.044;2023-11-19T00:42:06;44.45;;;7.60;;
48911;SDS011;34722;52.108;5.044;2023-11-19T00:44:32;31.60;;;6.57;;
48911;SDS011;34722;52.108;5.044;2023-11-19T00:46:57;45.55;;;7.72;;
48911;SDS011;34722;52.108;5.044;2023-11-19T00:49:24;26.40;;;6.40;;
48911;SDS011;34722;52.108;5.044;2023-11-19T00:51:50;44.22;;;7.47;;
48911;SDS011;34722;52.108;5.044;2023-11-19T00:54:15;41.63;;;7.85;;
48911;SDS011;34722;52.108;5.044;2023-11-19T00:56:41;32.45;;;6.82;;
48911;SDS011;34722;52.108;5.044;2023-11-19T00:59:07;34.80;;;7.30;;
48911;SDS011;34722;52.108;5.044;2023-11-19T01:01:32;41.13;;;7.95;;
48911;SDS011;34722;52.108;5.044;2023-11-19T01:03:58;31.17;;;6.97;;
48911;SDS011;34722;52.108;5.044;2023-11-19T01:06:30;40.22;;;7.05;;
48911;SDS011;34722;52.108;5.044;2023-11-19T01:08:57;40.67;;;7.40;;
48911;SDS011;34722;52.108;5.044;2023-11-19T01:11:23;31.27;;;6.07;;
48911;SDS011;34722;52.108;5.044;2023-11-19T01:13:49;41.58;;;8.18;;
48911;SDS011;34722;52.108;5.044;2023-11-19T01:16:15;43.10;;;7.35;;
48911;SDS011;34722;52.108;5.044;2023-11-19T01:18:41;43.95;;;7.55;;
48911;SDS011;34722;52.108;5.044;2023-11-19T01:21:06;38.90;;;7.78;;
48911;SDS011;34722;52.108;5.044;2023-11-19T01:23:33;29.88;;;6.30;;
48911;SDS011;34722;52.108;5.044;2023-11-19T01:26:03;46.65;;;6.70;;
48911;SDS011;34722;52.108;5.044;2023-11-19T01:28:30;43.13;;;8.13;;
48911;SDS011;34722;52.108;5.044;2023-11-19T01:30:56;34.80;;;6.38;;
48911;SDS011;34722;52.108;5.044;2023-11-19T01:33:21;43.92;;;6.60;;
48911;SDS011;34722;52.108;5.044;2023-11-19T01:35:47;48.20;;;6.90;;
48911;SDS011;34722;52.108;5.044;2023-11-19T01:38:13;41.67;;;7.18;;
48911;SDS011;34722;52.108;5.044;2023-11-19T01:40:39;42.63;;;6.20;;
48911;SDS011;34722;52.108;5.044;2023-11-19T01:43:05;41.90;;;7.88;;
48911;SDS011;34722;52.108;5.044;2023-11-19T01:45:31;35.70;;;7.20;;
48911;SDS011;34722;52.108;5.044;2023-11-19T01:47:57;42.03;;;8.50;;
48911;SDS011;34722;52.108;5.044;2023-11-19T01:50:25;36.55;;;7.00;;
48911;SDS011;34722;52.108;5.044;2023-11-19T01:52:53;44.28;;;8.90;;
48911;SDS011;34722;52.108;5.044;2023-11-19T01:55:20;40.10;;;6.97;;
48911;SDS011;34722;52.108;5.044;2023-11-19T01:57:47;45.08;;;7.18;;
48911;SDS011;34722;52.108;5.044;2023-11-19T02:00:14;51.97;;;7.95;;
48911;SDS011;34722;52.108;5.044;2023-11-19T02:02:41;48.70;;;9.70;;
48911;SDS011;34722;52.108;5.044;2023-11-19T02:05:08;40.35;;;8.27;;
48911;SDS011;34722;52.108;5.044;2023-11-19T02:07:35;56.85;;;10.15;;
48911;SDS011;34722;52.108;5.044;2023-11-19T02:10:00;37.53;;;6.28;;
48911;SDS011;34722;52.108;5.044;2023-11-19T02:12:27;43.03;;;8.13;;
48911;SDS011;34722;52.108;5.044;2023-11-19T02:14:58;48.85;;;10.13;;
48911;SDS011;34722;52.108;5.044;2023-11-19T02:17:28;40.53;;;8.70;;
48911;SDS011;34722;52.108;5.044;2023-11-19T02:19:56;49.15;;;10.00;;
48911;SDS011;34722;52.108;5.044;2023-11-19T02:22:22;66.68;;;11.68;;
48911;SDS011;34722;52.108;5.044;2023-11-19T02:24:47;50.22;;;8.48;;
48911;SDS011;34722;52.108;5.044;2023-11-19T02:27:59;52.55;;;9.93;;
48911;SDS011;34722;52.108;5.044;2023-11-19T02:30:24;52.90;;;9.88;;
48911;SDS011;34722;52.108;5.044;2023-11-19T02:32:55;39.67;;;8.00;;
48911;SDS011;34722;52.108;5.044;2023-11-19T02:35:22;51.13;;;8.90;;
48911;SDS011;34722;52.108;5.044;2023-11-19T02:37:49;45.78;;;9.73;;
48911;SDS011;34722;52.108;5.044;2023-11-19T02:40:14;37.72;;;7.63;;
48911;SDS011;34722;52.108;5.044;2023-11-19T02:42:40;68.18;;;11.07;;
48911;SDS011;34722;52.108;5.044;2023-11-19T02:45:07;43.22;;;8.65;;
48911;SDS011;34722;52.108;5.044;2023-11-19T02:47:38;43.90;;;7.18;;
48911;SDS011;34722;52.108;5.044;2023-11-19T02:50:08;44.10;;;8.70;;
48911;SDS011;34722;52.108;5.044;2023-11-19T02:52:50;50.75;;;8.55;;
48911;SDS011;34722;52.108;5.044;2023-11-19T02:55:18;53.60;;;9.00;;
48911;SDS011;34722;52.108;5.044;2023-11-19T02:57:44;50.70;;;10.00;;
48911;SDS011;34722;52.108;5.044;2023-11-19T03:00:14;49.10;;;8.60;;
48911;SDS011;34722;52.108;5.044;2023-11-19T03:02:46;43.72;;;9.25;;
48911;SDS011;34722;52.108;5.044;2023-11-19T03:05:13;59.40;;;9.68;;
48911;SDS011;34722;52.108;5.044;2023-11-19T03:07:42;51.15;;;7.32;;
48911;SDS011;34722;52.108;5.044;2023-11-19T03:10:09;53.85;;;11.20;;
48911;SDS011;34722;52.108;5.044;2023-11-19T03:12:38;52.63;;;8.20;;
48911;SDS011;34722;52.108;5.044;2023-11-19T03:15:09;52.90;;;10.73;;
48911;SDS011;34722;52.108;5.044;2023-11-19T03:17:36;52.55;;;9.00;;
48911;SDS011;34722;52.108;5.044;2023-11-19T03:20:06;50.60;;;8.98;;
48911;SDS011;34722;52.108;5.044;2023-11-19T03:22:38;62.65;;;8.00;;
48911;SDS011;34722;52.108;5.044;2023-11-19T03:25:07;59.10;;;8.88;;
48911;SDS011;34722;52.108;5.044;2023-11-19T03:27:42;46.55;;;9.20;;
48911;SDS011;34722;52.108;5.044;2023-11-19T03:30:08;56.10;;;11.48;;
48911;SDS011;34722;52.108;5.044;2023-11-19T03:32:35;63.80;;;9.43;;
48911;SDS011;34722;52.108;5.044;2023-11-19T03:35:04;62.28;;;11.20;;
48911;SDS011;34722;52.108;5.044;2023-11-19T03:37:32;45.50;;;9.98;;
48911;SDS011;34722;52.108;5.044;2023-11-19T03:39:58;50.47;;;9.23;;
48911;SDS011;34722;52.108;5.044;2023-11-19T03:42:27;51.50;;;8.73;;
48911;SDS011;34722;52.108;5.044;2023-11-19T03:44:56;47.70;;;8.43;;
48911;SDS011;34722;52.108;5.044;2023-11-19T03:47:22;63.45;;;10.70;;
48911;SDS011;34722;52.108;5.044;2023-11-19T03:49:48;43.95;;;8.30;;
48911;SDS011;34722;52.108;5.044;2023-11-19T03:52:15;56.97;;;10.98;;
48911;SDS011;34722;52.108;5.044;2023-11-19T03:54:41;50.88;;;9.43;;
48911;SDS011;34722;52.108;5.044;2023-11-19T03:57:07;56.63;;;9.95;;
48911;SDS011;34722;52.108;5.044;2023-11-19T03:59:38;42.55;;;9.10;;
48911;SDS011;34722;52.108;5.044;2023-11-19T04:02:04;53.13;;;9.68;;
48911;SDS011;34722;52.108;5.044;2023-11-19T04:04:30;55.03;;;11.80;;
48911;SDS011;34722;52.108;5.044;2023-11-19T04:06:56;47.30;;;7.10;;
48911;SDS011;34722;52.108;5.044;2023-11-19T04:09:22;55.97;;;10.30;;
48911;SDS011;34722;52.108;5.044;2023-11-19T04:11:48;48.97;;;10.43;;
48911;SDS011;34722;52.108;5.044;2023-11-19T04:14:15;54.85;;;9.77;;
48911;SDS011;34722;52.108;5.044;2023-11-19T04:16:43;48.20;;;7.82;;
48911;SDS011;34722;52.108;5.044;2023-11-19T04:19:09;59.33;;;9.57;;
48911;SDS011;34722;52.108;5.044;2023-11-19T04:21:35;46.25;;;8.95;;
48911;SDS011;34722;52.108;5.044;2023-11-19T04:24:01;64.07;;;9.95;;
48911;SDS011;34722;52.108;5.044;2023-11-19T04:26:27;50.95;;;9.05;;
48911;SDS011;34722;52.108;5.044;2023-11-19T04:28:53;53.08;;;9.80;;
48911;SDS011;34722;52.108;5.044;2023-11-19T04:31:19;65.50;;;9.40;;
48911;SDS011;34722;52.108;5.044;2023-11-19T04:33:48;58.55;;;9.50;;
48911;SDS011;34722;52.108;5.044;2023-11-19T04:36:26;51.50;;;7.55;;
48911;SDS011;34722;52.108;5.044;2023-11-19T04:38:57;58.10;;;10.07;;
48911;SDS011;34722;52.108;5.044;2023-11-19T04:41:24;48.22;;;10.13;;
48911;SDS011;34722;52.108;5.044;2023-11-19T04:43:59;70.20;;;12.40;;
48911;SDS011;34722;52.108;5.044;2023-11-19T04:46:26;54.33;;;8.35;;
48911;SDS011;34722;52.108;5.044;2023-11-19T04:48:57;57.95;;;8.48;;
48911;SDS011;34722;52.108;5.044;2023-11-19T04:51:26;48.10;;;7.63;;
48911;SDS011;34722;52.108;5.044;2023-11-19T04:53:52;50.30;;;8.75;;
48911;SDS011;34722;52.108;5.044;2023-11-19T04:56:17;68.00;;;9.65;;
48911;SDS011;34722;52.108;5.044;2023-11-19T04:58:44;45.42;;;8.27;;
48911;SDS011;34722;52.108;5.044;2023-11-19T05:01:13;50.13;;;7.82;;
48911;SDS011;34722;52.108;5.044;2023-11-19T05:03:51;42.10;;;8.50;;
48911;SDS011;34722;52.108;5.044;2023-11-19T05:06:18;42.30;;;7.38;;
48911;SDS011;34722;52.108;5.044;2023-11-19T05:08:44;52.30;;;7.85;;
48911;SDS011;34722;52.108;5.044;2023-11-19T05:11:09;49.55;;;10.93;;
48911;SDS011;34722;52.108;5.044;2023-11-19T05:13:37;59.78;;;8.52;;
48911;SDS011;34722;52.108;5.044;2023-11-19T05:16:03;50.83;;;8.02;;
48911;SDS011;34722;52.108;5.044;2023-11-19T05:18:29;48.05;;;8.82;;
48911;SDS011;34722;52.108;5.044;2023-11-19T05:20:55;40.85;;;8.18;;
48911;SDS011;34722;52.108;5.044;2023-11-19T05:23:21;41.90;;;9.25;;
48911;SDS011;34722;52.108;5.044;2023-11-19T05:25:46;57.17;;;10.95;;
48911;SDS011;34722;52.108;5.044;2023-11-19T05:28:12;46.55;;;8.52;;
48911;SDS011;34722;52.108;5.044;2023-11-19T05:30:39;61.75;;;10.48;;
48911;SDS011;34722;52.108;5.044;2023-11-19T05:33:05;51.47;;;7.43;;
48911;SDS011;34722;52.108;5.044;2023-11-19T05:35:32;43.42;;;8.50;;
48911;SDS011;34722;52.108;5.044;2023-11-19T05:37:59;46.03;;;8.77;;
48911;SDS011;34722;52.108;5.044;2023-11-19T05:40:25;67.22;;;10.73;;
48911;SDS011;34722;52.108;5.044;2023-11-19T05:42:51;51.47;;;8.82;;
48911;SDS011;34722;52.108;5.044;2023-11-19T05:45:17;56.35;;;9.18;;
48911;SDS011;34722;52.108;5.044;2023-11-19T05:47:42;48.42;;;7.50;;
48911;SDS011;34722;52.108;5.044;2023-11-19T05:50:08;60.03;;;9.57;;
48911;SDS011;34722;52.108;5.044;2023-11-19T05:52:35;42.47;;;8.15;;
48911;SDS011;34722;52.108;5.044;2023-11-19T05:55:01;56.17;;;9.93;;
48911;SDS011;34722;52.108;5.044;2023-11-19T05:57:34;55.47;;;8.77;;
48911;SDS011;34722;52.108;5.044;2023-11-19T06:00:01;53.78;;;7.95;;
48911;SDS011;34722;52.108;5.044;2023-11-19T06:02:28;54.40;;;9.65;;
48911;SDS011;34722;52.108;5.044;2023-11-19T06:04:54;52.28;;;10.00;;
48911;SDS011;34722;52.108;5.044;2023-11-19T06:07:19;45.85;;;7.40;;
48911;SDS011;34722;52.108;5.044;2023-11-19T06:09:45;48.35;;;7.95;;
48911;SDS011;34722;52.108;5.044;2023-11-19T06:12:11;65.53;;;10.77;;
48911;SDS011;34722;52.108;5.044;2023-11-19T06:14:37;61.20;;;8.93;;
48911;SDS011;34722;52.108;5.044;2023-11-19T06:17:06;47.88;;;10.02;;
48911;SDS011;34722;52.108;5.044;2023-11-19T06:19:33;59.63;;;9.68;;
48911;SDS011;34722;52.108;5.044;2023-11-19T06:21:59;63.65;;;8.07;;
48911;SDS011;34722;52.108;5.044;2023-11-19T06:24:24;42.55;;;7.65;;
48911;SDS011;34722;52.108;5.044;2023-11-19T06:26:52;42.88;;;8.48;;
48911;SDS011;34722;52.108;5.044;2023-11-19T06:29:18;40.88;;;7.18;;
48911;SDS011;34722;52.108;5.044;2023-11-19T06:31:44;45.17;;;10.13;;
48911;SDS011;34722;52.108;5.044;2023-11-19T06:34:13;51.55;;;7.63;;
48911;SDS011;34722;52.108;5.044;2023-11-19T06:36:39;50.35;;;9.82;;
48911;SDS011;34722;52.108;5.044;2023-11-19T06:39:05;37.10;;;6.35;;
48911;SDS011;34722;52.108;5.044;2023-11-19T06:41:31;45.97;;;7.88;;
48911;SDS011;34722;52.108;5.044;2023-11-19T06:43:57;43.42;;;7.00;;
48911;SDS011;34722;52.108;5.044;2023-11-19T06:46:22;45.05;;;9.27;;
48911;SDS011;34722;52.108;5.044;2023-11-19T06:48:48;49.35;;;9.48;;
48911;SDS011;34722;52.108;5.044;2023-11-19T06:51:14;51.55;;;7.07;;
48911;SDS011;34722;52.108;5.044;2023-11-19T06:53:40;47.42;;;8.00;;
48911;SDS011;34722;52.108;5.044;2023-11-19T06:56:22;48.38;;;8.10;;
48911;SDS011;34722;52.108;5.044;2023-11-19T06:58:51;36.83;;;7.03;;
48911;SDS011;34722;52.108;5.044;2023-11-19T07:01:18;49.50;;;8.40;;
48911;SDS011;34722;52.108;5.044;2023-11-19T07:03:46;51.42;;;8.85;;
48911;SDS011;34722;52.108;5.044;2023-11-19T07:06:13;46.53;;;8.45;;
48911;SDS011;34722;52.108;5.044;2023-11-19T07:08:39;49.03;;;7.13;;
48911;SDS011;34722;52.108;5.044;2023-11-19T07:11:12;42.67;;;6.93;;
48911;SDS011;34722;52.108;5.044;2023-11-19T07:13:39;40.80;;;8.20;;
48911;SDS011;34722;52.108;5.044;2023-11-19T07:16:06;45.55;;;7.32;;
48911;SDS011;34722;52.108;5.044;2023-11-19T07:18:35;47.10;;;7.15;;
48911;SDS011;34722;52.108;5.044;2023-11-19T07:21:01;47.28;;;7.38;;
48911;SDS011;34722;52.108;5.044;2023-11-19T07:23:28;49.22;;;8.38;;
48911;SDS011;34722;52.108;5.044;2023-11-19T07:25:53;54.97;;;9.73;;
48911;SDS011;34722;52.108;5.044;2023-11-19T07:28:19;47.78;;;9.43;;
48911;SDS011;34722;52.108;5.044;2023-11-19T07:30:44;62.67;;;9.40;;
48911;SDS011;34722;52.108;5.044;2023-11-19T07:33:10;53.22;;;9.32;;
48911;SDS011;34722;52.108;5.044;2023-11-19T07:35:37;47.35;;;9.55;;
48911;SDS011;34722;52.108;5.044;2023-11-19T07:38:02;48.15;;;6.72;;
48911;SDS011;34722;52.108;5.044;2023-11-19T07:40:28;52.90;;;8.70;;
48911;SDS011;34722;52.108;5.044;2023-11-19T07:42:54;58.58;;;10.02;;
48911;SDS011;34722;52.108;5.044;2023-11-19T07:45:19;48.95;;;8.00;;
48911;SDS011;34722;52.108;5.044;2023-11-19T07:47:45;44.50;;;7.05;;
48911;SDS011;34722;52.108;5.044;2023-11-19T07:50:10;37.75;;;7.28;;
48911;SDS011;34722;52.108;5.044;2023-11-19T07:52:39;50.75;;;10.32;;
48911;SDS011;34722;52.108;5.044;2023-11-19T07:55:05;32.05;;;6.00;;
48911;SDS011;34722;52.108;5.044;2023-11-19T07:57:30;54.92;;;10.43;;
48911;SDS011;34722;52.108;5.044;2023-11-19T07:59:56;48.58;;;8.57;;
48911;SDS011;34722;52.108;5.044;2023-11-19T08:02:22;49.85;;;7.60;;
48911;SDS011;34722;52.108;5.044;2023-11-19T08:04:49;50.88;;;10.80;;
48911;SDS011;34722;52.108;5.044;2023-11-19T08:07:17;37.00;;;7.20;;
48911;SDS011;34722;52.108;5.044;2023-11-19T08:09:43;63.47;;;10.00;;
48911;SDS011;34722;52.108;5.044;2023-11-19T08:12:10;44.90;;;7.38;;
48911;SDS011;34722;52.108;5.044;2023-11-19T08:14:35;47.22;;;10.15;;
48911;SDS011;34722;52.108;5.044;2023-11-19T08:17:02;50.55;;;8.25;;
48911;SDS011;34722;52.108;5.044;2023-11-19T08:19:28;39.80;;;7.43;;
48911;SDS011;34722;52.108;5.044;2023-11-19T08:21:53;58.38;;;10.88;;
48911;SDS011;34722;52.108;5.044;2023-11-19T08:24:19;64.70;;;10.40;;
48911;SDS011;34722;52.108;5.044;2023-11-19T08:26:45;52.30;;;9.30;;
48911;SDS011;34722;52.108;5.044;2023-11-19T08:29:11;43.20;;;7.13;;
48911;SDS011;34722;52.108;5.044;2023-11-19T08:31:36;52.42;;;13.10;;
48911;SDS011;34722;52.108;5.044;2023-11-19T08:34:02;54.83;;;9.50;;
48911;SDS011;34722;52.108;5.044;2023-11-19T08:36:27;53.65;;;7.38;;
48911;SDS011;34722;52.108;5.044;2023-11-19T08:38:53;54.30;;;8.75;;
48911;SDS011;34722;52.108;5.044;2023-11-19T08:41:19;59.20;;;11.20;;
48911;SDS011;34722;52.108;5.044;2023-11-19T08:43:46;37.08;;;7.93;;
48911;SDS011;34722;52.108;5.044;2023-11-19T08:46:12;60.92;;;11.70;;
48911;SDS011;34722;52.108;5.044;2023-11-19T08:48:38;44.42;;;7.60;;
48911;SDS011;34722;52.108;5.044;2023-11-19T08:51:04;39.53;;;8.95;;
48911;SDS011;34722;52.108;5.044;2023-11-19T08:53:30;54.40;;;9.90;;
48911;SDS011;34722;52.108;5.044;2023-11-19T08:55:56;55.65;;;6.97;;
48911;SDS011;34722;52.108;5.044;2023-11-19T08:58:21;54.88;;;11.18;;
48911;SDS011;34722;52.108;5.044;2023-11-19T09:00:47;50.38;;;9.50;;
48911;SDS011;34722;52.108;5.044;2023-11-19T09:03:13;46.95;;;8.00;;
48911;SDS011;34722;52.108;5.044;2023-11-19T09:05:42;41.75;;;7.82;;
48911;SDS011;34722;52.108;5.044;2023-11-19T09:08:08;52.38;;;9.48;;
48911;SDS011;34722;52.108;5.044;2023-11-19T09:10:34;48.47;;;9.10;;
48911;SDS011;34722;52.108;5.044;2023-11-19T09:13:05;37.53;;;8.95;;
48911;SDS011;34722;52.108;5.044;2023-11-19T09:15:34;40.55;;;7.93;;
48911;SDS011;34722;52.108;5.044;2023-11-19T09:18:00;40.97;;;8.48;;
48911;SDS011;34722;52.108;5.044;2023-11-19T09:20:28;46.78;;;8.07;;
48911;SDS011;34722;52.108;5.044;2023-11-19T09:22:57;31.30;;;7.47;;
48911;SDS011;34722;52.108;5.044;2023-11-19T09:25:26;50.10;;;8.52;;
48911;SDS011;34722;52.108;5.044;2023-11-19T09:27:51;52.90;;;7.45;;
48911;SDS011;34722;52.108;5.044;2023-11-19T09:30:17;51.97;;;8.63;;
48911;SDS011;34722;52.108;5.044;2023-11-19T09:32:42;31.25;;;7.63;;
48911;SDS011;34722;52.108;5.044;2023-11-19T09:35:08;41.00;;;8.52;;
48911;SDS011;34722;52.108;5.044;2023-11-19T09:37:35;44.58;;;9.45;;
48911;SDS011;34722;52.108;5.044;2023-11-19T09:40:01;52.38;;;10.93;;
48911;SDS011;34722;52.108;5.044;2023-11-19T09:42:27;41.63;;;8.43;;
48911;SDS011;34722;52.108;5.044;2023-11-19T09:44:53;41.33;;;8.15;;
48911;SDS011;34722;52.108;5.044;2023-11-19T09:47:19;50.75;;;9.43;;
48911;SDS011;34722;52.108;5.044;2023-11-19T09:49:47;49.72;;;8.50;;
48911;SDS011;34722;52.108;5.044;2023-11-19T09:52:14;34.45;;;7.65;;
48911;SDS011;34722;52.108;5.044;2023-11-19T09:54:40;44.42;;;7.93;;
48911;SDS011;34722;52.108;5.044;2023-11-19T09:57:05;38.33;;;9.38;;
48911;SDS011;34722;52.108;5.044;2023-11-19T09:59:32;44.05;;;7.72;;
48911;SDS011;34722;52.108;5.044;2023-11-19T10:01:58;39.70;;;9.65;;
48911;SDS011;34722;52.108;5.044;2023-11-19T10:04:24;44.88;;;10.15;;
48911;SDS011;34722;52.108;5.044;2023-11-19T10:06:54;45.00;;;10.38;;
48911;SDS011;34722;52.108;5.044;2023-11-19T10:09:20;48.72;;;9.50;;
48911;SDS011;34722;52.108;5.044;2023-11-19T10:11:46;39.25;;;6.72;;
48911;SDS011;34722;52.108;5.044;2023-11-19T10:14:11;41.80;;;7.53;;
48911;SDS011;34722;52.108;5.044;2023-11-19T10:16:39;42.83;;;7.18;;
48911;SDS011;34722;52.108;5.044;2023-11-19T10:19:06;37.20;;;8.18;;
48911;SDS011;34722;52.108;5.044;2023-11-19T10:21:34;47.75;;;8.27;;
48911;SDS011;34722;52.108;5.044;2023-11-19T10:24:00;39.67;;;8.93;;
48911;SDS011;34722;52.108;5.044;2023-11-19T10:26:26;42.13;;;8.68;;
48911;SDS011;34722;52.108;5.044;2023-11-19T10:28:52;34.03;;;10.15;;
48911;SDS011;34722;52.108;5.044;2023-11-19T10:31:20;30.05;;;6.85;;
48911;SDS011;34722;52.108;5.044;2023-11-19T10:33:50;41.17;;;8.30;;
48911;SDS011;34722;52.108;5.044;2023-11-19T10:36:16;35.65;;;8.50;;
48911;SDS011;34722;52.108;5.044;2023-11-19T10:39:03;39.63;;;7.82;;
48911;SDS011;34722;52.108;5.044;2023-11-19T10:43:55;23.88;;;6.30;;
48911;SDS011;34722;52.108;5.044;2023-11-19T10:46:21;34.42;;;6.82;;
48911;SDS011;34722;52.108;5.044;2023-11-19T10:48:48;37.50;;;7.80;;
48911;SDS011;34722;52.108;5.044;2023-11-19T10:51:17;29.75;;;6.30;;
48911;SDS011;34722;52.108;5.044;2023-11-19T10:53:48;44.40;;;8.65;;
48911;SDS011;34722;52.108;5.044;2023-11-19T10:56:16;31.80;;;6.47;;
48911;SDS011;34722;52.108;5.044;2023-11-19T10:58:44;30.20;;;6.82;;
48911;SDS011;34722;52.108;5.044;2023-11-19T11:01:18;40.42;;;8.18;;
48911;SDS011;34722;52.108;5.044;2023-11-19T11:03:48;32.17;;;7.47;;
48911;SDS011;34722;52.108;5.044;2023-11-19T11:06:18;29.80;;;6.97;;
48911;SDS011;34722;52.108;5.044;2023-11-19T11:08:48;32.30;;;6.18;;
48911;SDS011;34722;52.108;5.044;2023-11-19T11:11:15;30.08;;;7.43;;
48911;SDS011;34722;52.108;5.044;2023-11-19T11:13:46;22.38;;;6.13;;
48911;SDS011;34722;52.108;5.044;2023-11-19T11:16:14;32.50;;;6.28;;
48911;SDS011;34722;52.108;5.044;2023-11-19T11:18:43;33.67;;;7.30;;
48911;SDS011;34722;52.108;5.044;2023-11-19T11:21:11;37.80;;;6.43;;
48911;SDS011;34722;52.108;5.044;2023-11-19T11:23:54;30.33;;;6.72;;
48911;SDS011;34722;52.108;5.044;2023-11-19T11:35:08;28.10;;;7.43;;
48911;SDS011;34722;52.108;5.044;2023-11-19T11:37:47;25.58;;;6.53;;
48911;SDS011;34722;52.108;5.044;2023-11-19T11:40:18;28.38;;;7.65;;
48911;SDS011;34722;52.108;5.044;2023-11-19T11:42:46;44.75;;;7.95;;
48911;SDS011;34722;52.108;5.044;2023-11-19T11:45:13;36.22;;;9.13;;
48911;SDS011;34722;52.108;5.044;2023-11-19T11:55:28;35.50;;;7.65;;
48911;SDS011;34722;52.108;5.044;2023-11-19T11:58:06;33.45;;;8.00;;
48911;SDS011;34722;52.108;5.044;2023-11-19T12:00:32;32.08;;;7.05;;
48911;SDS011;34722;52.108;5.044;2023-11-19T12:03:05;40.17;;;6.63;;
48911;SDS011;34722;52.108;5.044;2023-11-19T12:05:32;38.95;;;8.18;;
48911;SDS011;34722;52.108;5.044;2023-11-19T12:08:04;30.02;;;6.25;;
48911;SDS011;34722;52.108;5.044;2023-11-19T12:10:37;34.30;;;7.18;;
48911;SDS011;34722;52.108;5.044;2023-11-19T12:13:10;35.53;;;7.57;;
48911;SDS011;34722;52.108;5.044;2023-11-19T12:16:24;21.80;;;6.85;;
48911;SDS011;34722;52.108;5.044;2023-11-19T12:18:28;28.10;;;6.40;;
48911;SDS011;34722;52.108;5.044;2023-11-19T12:20:54;37.17;;;6.82;;
48911;SDS011;34722;52.108;5.044;2023-11-19T12:23:22;27.38;;;6.05;;
48911;SDS011;34722;52.108;5.044;2023-11-19T12:25:48;24.25;;;5.97;;
48911;SDS011;34722;52.108;5.044;2023-11-19T12:28:14;33.38;;;8.30;;
48911;SDS011;34722;52.108;5.044;2023-11-19T12:30:44;23.15;;;6.22;;
48911;SDS011;34722;52.108;5.044;2023-11-19T12:33:11;28.75;;;5.15;;
48911;SDS011;34722;52.108;5.044;2023-11-19T12:35:41;25.92;;;5.78;;
48911;SDS011;34722;52.108;5.044;2023-11-19T12:38:08;26.35;;;5.03;;
48911;SDS011;34722;52.108;5.044;2023-11-19T12:40:44;26.60;;;5.82;;
48911;SDS011;34722;52.108;5.044;2023-11-19T12:43:10;47.03;;;9.38;;
48911;SDS011;34722;52.108;5.044;2023-11-19T12:45:36;25.40;;;5.43;;
48911;SDS011;34722;52.108;5.044;2023-11-19T12:48:08;26.25;;;7.60;;
48911;SDS011;34722;52.108;5.044;2023-11-19T12:53:26;28.27;;;7.15;;
48911;SDS011;34722;52.108;5.044;2023-11-19T12:55:54;35.58;;;6.60;;
48911;SDS011;34722;52.108;5.044;2023-11-19T12:58:30;25.00;;;6.28;;
48911;SDS011;34722;52.108;5.044;2023-11-19T13:03:29;23.10;;;5.25;;
48911;SDS011;34722;52.108;5.044;2023-11-19T13:06:02;36.22;;;5.75;;
48911;SDS011;34722;52.108;5.044;2023-11-19T13:11:09;27.05;;;7.13;;
48911;SDS011;34722;52.108;5.044;2023-11-19T13:16:29;28.75;;;7.65;;
48911;SDS011;34722;52.108;5.044;2023-11-19T13:18:55;42.80;;;7.63;;
48911;SDS011;34722;52.108;5.044;2023-11-19T13:21:22;28.95;;;6.95;;
48911;SDS011;34722;52.108;5.044;2023-11-19T13:23:48;30.88;;;6.53;;
48911;SDS011;34722;52.108;5.044;2023-11-19T13:26:13;31.88;;;7.97;;
48911;SDS011;34722;52.108;5.044;2023-11-19T13:28:39;33.85;;;9.15;;
48911;SDS011;34722;52.108;5.044;2023-11-19T13:31:05;25.35;;;6.88;;
48911;SDS011;34722;52.108;5.044;2023-11-19T13:33:31;26.13;;;6.82;;
48911;SDS011;34722;52.108;5.044;2023-11-19T13:35:57;35.58;;;7.47;;
48911;SDS011;34722;52.108;5.044;2023-11-19T13:38:23;27.58;;;6.57;;
48911;SDS011;34722;52.108;5.044;2023-11-19T13:40:52;32.40;;;6.32;;
48911;SDS011;34722;52.108;5.044;2023-11-19T13:43:18;26.27;;;8.00;;
48911;SDS011;34722;52.108;5.044;2023-11-19T13:45:44;28.75;;;7.13;;
48911;SDS011;34722;52.108;5.044;2023-11-19T13:48:10;31.48;;;9.00;;
48911;SDS011;34722;52.108;5.044;2023-11-19T13:50:35;26.08;;;5.50;;
48911;SDS011;34722;52.108;5.044;2023-11-19T13:53:01;23.35;;;5.05;;
48911;SDS011;34722;52.108;5.044;2023-11-19T13:55:27;28.67;;;5.50;;
48911;SDS011;34722;52.108;5.044;2023-11-19T13:57:53;34.80;;;8.20;;
48911;SDS011;34722;52.108;5.044;2023-11-19T14:00:18;34.40;;;6.50;;
48911;SDS011;34722;52.108;5.044;2023-11-19T14:02:45;26.88;;;5.93;;
48911;SDS011;34722;52.108;5.044;2023-11-19T14:05:14;31.33;;;6.97;;
48911;SDS011;34722;52.108;5.044;2023-11-19T14:07:44;27.83;;;6.95;;
48911;SDS011;34722;52.108;5.044;2023-11-19T14:10:13;26.52;;;6.05;;
48911;SDS011;34722;52.108;5.044;2023-11-19T14:12:39;27.23;;;6.65;;
48911;SDS011;34722;52.108;5.044;2023-11-19T14:15:06;22.92;;;4.63;;
48911;SDS011;34722;52.108;5.044;2023-11-19T14:17:38;29.02;;;5.72;;
48911;SDS011;34722;52.108;5.044;2023-11-19T14:20:04;40.65;;;8.15;;
48911;SDS011;34722;52.108;5.044;2023-11-19T14:22:37;20.77;;;4.70;;
48911;SDS011;34722;52.108;5.044;2023-11-19T14:25:14;31.30;;;6.80;;
48911;SDS011;34722;52.108;5.044;2023-11-19T14:27:43;29.88;;;5.75;;
48911;SDS011;34722;52.108;5.044;2023-11-19T14:30:09;24.00;;;4.43;;
48911;SDS011;34722;52.108;5.044;2023-11-19T14:32:37;33.33;;;5.15;;
48911;SDS011;34722;52.108;5.044;2023-11-19T14:35:06;26.48;;;6.63;;
48911;SDS011;34722;52.108;5.044;2023-11-19T14:37:33;29.27;;;6.75;;
48911;SDS011;34722;52.108;5.044;2023-11-19T14:39:59;31.45;;;5.18;;
48911;SDS011;34722;52.108;5.044;2023-11-19T14:42:25;29.20;;;6.82;;
48911;SDS011;34722;52.108;5.044;2023-11-19T14:44:51;35.08;;;6.68;;
48911;SDS011;34722;52.108;5.044;2023-11-19T14:47:20;31.63;;;6.18;;
48911;SDS011;34722;52.108;5.044;2023-11-19T14:49:46;35.70;;;6.15;;
48911;SDS011;34722;52.108;5.044;2023-11-19T14:52:12;41.00;;;7.22;;
48911;SDS011;34722;52.108;5.044;2023-11-19T14:54:38;50.80;;;10.85;;
48911;SDS011;34722;52.108;5.044;2023-11-19T14:57:04;29.23;;;6.38;;
48911;SDS011;34722;52.108;5.044;2023-11-19T14:59:33;39.13;;;6.53;;
48911;SDS011;34722;52.108;5.044;2023-11-19T15:01:58;30.60;;;6.30;;
48911;SDS011;34722;52.108;5.044;2023-11-19T15:04:25;27.05;;;6.07;;
48911;SDS011;34722;52.108;5.044;2023-11-19T15:06:52;37.13;;;7.82;;